Terminal Aerodrome Forecast
Issued by NWS

Home | Current Version | Previous Version | Text Only | Print | Product List | Glossary On
Versions: 1 2 3 4 5 6 7 8 9 10 11 12 13 14 15 16 17 18 19 20
846
FTUS43 KGRR 292340
TAFBTL
TAF
KBTL 292340Z 3000/3024 03006KT P6SM BKN035
     FM301500 10008KT P6SM BKN030
     FM302100 10006KT 4SM -RA BR OVC015
     FM302300 09005KT 2SM -RA BR OVC010=

USA.gov is the U.S. government's official web portal to all federal, state and local government web resources and services.